Arcadia, Oregon
Current Conditions -  °F | °C
As of 6:53 PM on Wednesday 22 Oct 2014 (Local Time) from KONO Reporting Station
Broken Clouds Broken Clouds  
Wind Chill: 55°   Ceiling: 11000
Heat Index: 55°   Visibility: 10mi
Dew Point: 44°   Wind: 3mph
Humidity: 67%   Direction: 10°N
Pressure: 29.99"   Gusts: NA
Location:  43.754°N, 117.202°W
Report Text: KONO 230053Z AUTO 01003KT 10SM BKN110 13/07 A2999 RMK AO2 SLP165 T01280067
Loading
Personal Weather Stations






























Interactive Weather Map
Tropical Storm Tracking
New forecast layout! Learn more

10-Day Weather Forecast

Advertisements
Track Severe Weather on mobile